This is the latest recevied weather packets stored in our database for station/object WV4O. If no packets are shown the sender has not sent any weather packets the latest 10 day(s).
| Time | Temp. | Humidity | Pressure | Rain* | Wind** | Luminosity | Snow |
|---|---|---|---|---|---|---|---|
| 1777808722 | 5.56° C | 96% | 1020.2 hPa | 0 mm | - | 70 W/m² | - |
| 1777802718 | 5° C | 97% | 1020.1 hPa | 0 mm | - | 0 W/m² | - |
| 1777802117 | 5° C | 97% | 1019.8 hPa | 0 mm | - | 0 W/m² | - |
| 1777798519 | 5.56° C | 96% | 1019.8 hPa | 0 mm | - | 0 W/m² | - |
| 1777792517 | 6.11° C | 96% | 1020.1 hPa | 0 mm | - | 0 W/m² | - |
| 1777780517 | 8.33° C | 88% | 1020 hPa | 0 mm | - | 0 W/m² | - |
| 1777776318 | 10° C | 75% | 1020.1 hPa | 0 mm | - | 0 W/m² | - |
| 1777773316 | 11.11° C | 69% | 1019.4 hPa | 0 mm | - | 0 W/m² | - |
| 1777772738 | 11.67° C | 68% | 1019.2 hPa | 0 mm | - | 0 W/m² | - |
| 1777769116 | 12.78° C | 59% | 1018.8 hPa | 0 mm | - | 5 W/m² | - |
| 1777767917 | 12.78° C | 59% | 1018.3 hPa | 0 mm | - | 24 W/m² | - |
| 1777767317 | 13.33° C | 62% | 1018.4 hPa | 0 mm | - | 40 W/m² | - |
| 1777765517 | 13.33° C | 62% | 1017.9 hPa | 0 mm | - | 109 W/m² | - |
| 1777763119 | 13.89° C | 63% | 1018 hPa | 0 mm | - | 158 W/m² | - |
| 1777758916 | 14.44° C | 60% | 1016.8 hPa | 0 mm | - | 524 W/m² | - |
| 1777755916 | 15.56° C | 56% | 1016.9 hPa | 0 mm | - | 276 W/m² | - |
| 1777755317 | 15.56° C | 56% | 1016 hPa | 0 mm | - | 655 W/m² | - |
| 1777751759 | 18.89° C | 32% | 1013.8 hPa | 0 mm | - | 988 W/m² | - |
| 1777748718 | 16.67° C | 50% | 1013.6 hPa | 0.51 mm | - | 1018 W/m² | - |
| 1777744521 | 17.78° C | 42% | 1015.1 hPa | 0 mm | - | 401 W/m² | - |
| 1777743916 | 17.22° C | 45% | 1014.9 hPa | 0 mm | - | 878 W/m² | - |
| 1777736718 | 16.11° C | 45% | 1016.9 hPa | 0 mm | - | 393 W/m² | - |
| 1777736118 | 16.67° C | 44% | 1015.6 hPa | 0 mm | - | 660 W/m² | - |
| 1777734316 | 15.56° C | 47% | 1015.7 hPa | 0 mm | - | 653 W/m² | - |
| 1777732516 | 15° C | 51% | 1016.7 hPa | 0 mm | - | 263 W/m² | - |
* Rain latest hour (hover to see other rain measurements)
** Current wind speed in m/s (hover to see current wind gust speed)